sensor_id;sensor_type;location;lat;lon;timestamp;pressure;altitude;pressure_sealevel;temperature;humidity
59289;BME280;45056;47.602;9.886;2023-06-14T00:02:11;92419.63;;;17.41;29.22
59289;BME280;45056;47.602;9.886;2023-06-14T00:04:39;92427.88;;;17.41;29.48
59289;BME280;45056;47.602;9.886;2023-06-14T00:07:08;92430.13;;;17.42;29.26
59289;BME280;45056;47.602;9.886;2023-06-14T00:09:37;92425.41;;;17.49;29.30
59289;BME280;45056;47.602;9.886;2023-06-14T00:12:06;92425.38;;;17.54;29.46
59289;BME280;45056;47.602;9.886;2023-06-14T00:14:35;92426.16;;;17.55;29.21
59289;BME280;45056;47.602;9.886;2023-06-14T00:17:03;92419.16;;;17.54;29.44
59289;BME280;45056;47.602;9.886;2023-06-14T00:19:33;92420.66;;;17.55;29.23
59289;BME280;45056;47.602;9.886;2023-06-14T00:22:03;92423.41;;;17.55;29.52
59289;BME280;45056;47.602;9.886;2023-06-14T00:24:31;92412.66;;;17.57;29.64
59289;BME280;45056;47.602;9.886;2023-06-14T00:27:01;92418.16;;;17.57;29.67
59289;BME280;45056;47.602;9.886;2023-06-14T00:29:29;92420.41;;;17.53;29.79
59289;BME280;45056;47.602;9.886;2023-06-14T00:31:57;92411.88;;;17.45;29.73
59289;BME280;45056;47.602;9.886;2023-06-14T00:34:25;92416.13;;;17.40;30.03
59289;BME280;45056;47.602;9.886;2023-06-14T00:36:53;92416.63;;;17.33;30.22
59289;BME280;45056;47.602;9.886;2023-06-14T00:39:21;92413.38;;;17.29;29.93
59289;BME280;45056;47.602;9.886;2023-06-14T00:41:49;92418.84;;;17.23;30.27
59289;BME280;45056;47.602;9.886;2023-06-14T00:44:19;92406.63;;;17.19;30.28
59289;BME280;45056;47.602;9.886;2023-06-14T00:46:48;92409.09;;;17.11;30.28
59289;BME280;45056;47.602;9.886;2023-06-14T00:49:17;92409.34;;;17.07;30.30
59289;BME280;45056;47.602;9.886;2023-06-14T00:51:47;92409.84;;;17.06;30.49
59289;BME280;45056;47.602;9.886;2023-06-14T00:54:16;92414.56;;;17.05;30.47
59289;BME280;45056;47.602;9.886;2023-06-14T00:56:44;92409.81;;;17.00;30.52
59289;BME280;45056;47.602;9.886;2023-06-14T00:59:13;92409.56;;;16.98;30.69
59289;BME280;45056;47.602;9.886;2023-06-14T01:01:43;92407.56;;;16.98;30.51
59289;BME280;45056;47.602;9.886;2023-06-14T01:04:11;92404.06;;;16.98;30.75
59289;BME280;45056;47.602;9.886;2023-06-14T01:06:48;92412.03;;;16.96;30.82
59289;BME280;45056;47.602;9.886;2023-06-14T01:09:40;92413.03;;;16.93;31.02
59289;BME280;45056;47.602;9.886;2023-06-14T01:12:24;92410.03;;;16.91;30.97
59289;BME280;45056;47.602;9.886;2023-06-14T01:15:01;92406.53;;;16.90;31.13
59289;BME280;45056;47.602;9.886;2023-06-14T01:17:32;92412.25;;;16.92;31.26
59289;BME280;45056;47.602;9.886;2023-06-14T01:20:01;92400.53;;;16.92;31.21
59289;BME280;45056;47.602;9.886;2023-06-14T01:22:34;92402.78;;;16.93;31.42
59289;BME280;45056;47.602;9.886;2023-06-14T01:25:05;92407.53;;;16.93;32.02
59289;BME280;45056;47.602;9.886;2023-06-14T01:27:34;92400.03;;;16.93;31.94
59289;BME280;45056;47.602;9.886;2023-06-14T01:30:03;92401.28;;;16.92;32.25
59289;BME280;45056;47.602;9.886;2023-06-14T01:32:34;92402.53;;;16.85;32.41
59289;BME280;45056;47.602;9.886;2023-06-14T01:35:04;92397.25;;;16.76;32.63
59289;BME280;45056;47.602;9.886;2023-06-14T01:37:33;92401.22;;;16.69;32.84
59289;BME280;45056;47.602;9.886;2023-06-14T01:40:06;92401.94;;;16.64;33.00
59289;BME280;45056;47.602;9.886;2023-06-14T01:42:38;92396.44;;;16.58;32.98
59289;BME280;45056;47.602;9.886;2023-06-14T01:45:09;92403.19;;;16.57;33.03
59289;BME280;45056;47.602;9.886;2023-06-14T01:47:39;92396.44;;;16.58;33.09
59289;BME280;45056;47.602;9.886;2023-06-14T01:50:09;92403.44;;;16.59;33.31
59289;BME280;45056;47.602;9.886;2023-06-14T01:52:37;92395.94;;;16.60;33.49
59289;BME280;45056;47.602;9.886;2023-06-14T01:55:08;92392.47;;;16.59;33.45
59289;BME280;45056;47.602;9.886;2023-06-14T01:57:36;92392.47;;;16.59;33.18
59289;BME280;45056;47.602;9.886;2023-06-14T02:00:05;92384.22;;;16.59;33.47
59289;BME280;45056;47.602;9.886;2023-06-14T02:02:39;92391.69;;;16.59;33.40
59289;BME280;45056;47.602;9.886;2023-06-14T02:05:07;92381.94;;;16.58;33.00
59289;BME280;45056;47.602;9.886;2023-06-14T02:07:35;92389.94;;;16.56;33.28
59289;BME280;45056;47.602;9.886;2023-06-14T02:10:04;92387.94;;;16.51;33.87
59289;BME280;45056;47.602;9.886;2023-06-14T02:12:34;92385.41;;;16.47;34.32
59289;BME280;45056;47.602;9.886;2023-06-14T02:15:03;92393.63;;;16.41;34.18
59289;BME280;45056;47.602;9.886;2023-06-14T02:17:32;92386.63;;;16.35;34.45
59289;BME280;45056;47.602;9.886;2023-06-14T02:20:01;92386.31;;;16.27;34.76
59289;BME280;45056;47.602;9.886;2023-06-14T02:22:31;92381.53;;;16.16;34.93
59289;BME280;45056;47.602;9.886;2023-06-14T02:24:59;92387.69;;;16.05;35.28
59289;BME280;45056;47.602;9.886;2023-06-14T02:27:27;92384.19;;;15.99;35.29
59289;BME280;45056;47.602;9.886;2023-06-14T02:29:56;92383.91;;;15.97;35.80
59289;BME280;45056;47.602;9.886;2023-06-14T02:32:24;92383.19;;;15.96;36.07
59289;BME280;45056;47.602;9.886;2023-06-14T02:34:53;92382.69;;;15.98;35.98
59289;BME280;45056;47.602;9.886;2023-06-14T02:37:21;92388.66;;;15.96;36.23
59289;BME280;45056;47.602;9.886;2023-06-14T02:39:49;92382.41;;;15.96;36.44
59289;BME280;45056;47.602;9.886;2023-06-14T02:42:17;92388.16;;;15.92;36.89
59289;BME280;45056;47.602;9.886;2023-06-14T02:44:45;92392.88;;;15.92;36.82
59289;BME280;45056;47.602;9.886;2023-06-14T02:47:18;92386.38;;;15.89;37.02
59289;BME280;45056;47.602;9.886;2023-06-14T02:49:47;92384.56;;;15.86;37.33
59289;BME280;45056;47.602;9.886;2023-06-14T02:52:15;92391.81;;;15.83;37.35
59289;BME280;45056;47.602;9.886;2023-06-14T02:54:43;92386.78;;;15.82;37.55
59289;BME280;45056;47.602;9.886;2023-06-14T02:57:11;92386.06;;;15.81;37.84
59289;BME280;45056;47.602;9.886;2023-06-14T02:59:39;92393.75;;;15.77;37.98
59289;BME280;45056;47.602;9.886;2023-06-14T03:02:07;92397.44;;;15.68;38.17
59289;BME280;45056;47.602;9.886;2023-06-14T03:04:37;92394.38;;;15.61;38.39
59289;BME280;45056;47.602;9.886;2023-06-14T03:07:05;92389.88;;;15.57;38.32
59289;BME280;45056;47.602;9.886;2023-06-14T03:09:35;92397.06;;;15.55;38.25
59289;BME280;45056;47.602;9.886;2023-06-14T03:12:06;92396.06;;;15.52;38.27
59289;BME280;45056;47.602;9.886;2023-06-14T03:14:35;92399.03;;;15.49;38.32
59289;BME280;45056;47.602;9.886;2023-06-14T03:17:05;92399.25;;;15.45;38.45
59289;BME280;45056;47.602;9.886;2023-06-14T03:19:34;92398.97;;;15.43;38.47
59289;BME280;45056;47.602;9.886;2023-06-14T03:22:04;92400.72;;;15.40;38.54
59289;BME280;45056;47.602;9.886;2023-06-14T03:24:34;92397.72;;;15.38;38.98
59289;BME280;45056;47.602;9.886;2023-06-14T03:27:03;92395.94;;;15.35;39.11
59289;BME280;45056;47.602;9.886;2023-06-14T03:29:31;92403.63;;;15.31;39.44
59289;BME280;45056;47.602;9.886;2023-06-14T03:32:01;92404.56;;;15.28;39.40
59289;BME280;45056;47.602;9.886;2023-06-14T03:34:30;92407.56;;;15.24;39.54
59289;BME280;45056;47.602;9.886;2023-06-14T03:36:58;92408.03;;;15.23;39.66
59289;BME280;45056;47.602;9.886;2023-06-14T03:39:28;92406.53;;;15.22;39.56
59289;BME280;45056;47.602;9.886;2023-06-14T03:41:56;92408.53;;;15.21;39.78
59289;BME280;45056;47.602;9.886;2023-06-14T03:44:26;92419.22;;;15.19;39.95
59289;BME280;45056;47.602;9.886;2023-06-14T03:46:54;92412.25;;;15.18;40.08
59289;BME280;45056;47.602;9.886;2023-06-14T03:49:22;92420.94;;;15.17;40.40
59289;BME280;45056;47.602;9.886;2023-06-14T03:51:50;92423.88;;;15.13;40.62
59289;BME280;45056;47.602;9.886;2023-06-14T03:54:18;92432.59;;;15.11;40.63
59289;BME280;45056;47.602;9.886;2023-06-14T03:56:49;92435.34;;;15.11;40.72
59289;BME280;45056;47.602;9.886;2023-06-14T03:59:17;92433.06;;;15.10;40.75
59289;BME280;45056;47.602;9.886;2023-06-14T04:01:45;92435.06;;;15.09;40.75
59289;BME280;45056;47.602;9.886;2023-06-14T04:04:13;92444.25;;;15.06;40.65
59289;BME280;45056;47.602;9.886;2023-06-14T04:06:42;92444.94;;;15.01;40.81
59289;BME280;45056;47.602;9.886;2023-06-14T04:09:11;92446.19;;;15.00;40.70
59289;BME280;45056;47.602;9.886;2023-06-14T04:11:39;92444.19;;;15.00;40.63
59289;BME280;45056;47.602;9.886;2023-06-14T04:14:08;92446.19;;;15.00;40.78
59289;BME280;45056;47.602;9.886;2023-06-14T04:16:37;92448.94;;;15.00;41.14
59289;BME280;45056;47.602;9.886;2023-06-14T04:19:05;92453.63;;;14.99;41.35
59289;BME280;45056;47.602;9.886;2023-06-14T04:21:33;92453.63;;;14.99;41.41
59289;BME280;45056;47.602;9.886;2023-06-14T04:24:01;92456.19;;;15.03;41.51
59289;BME280;45056;47.602;9.886;2023-06-14T04:26:30;92460.97;;;15.08;41.41
59289;BME280;45056;47.602;9.886;2023-06-14T04:29:00;92462.72;;;15.11;41.54
59289;BME280;45056;47.602;9.886;2023-06-14T04:31:29;92461.75;;;15.14;41.85
59289;BME280;45056;47.602;9.886;2023-06-14T04:34:00;92460.06;;;15.17;41.89
59289;BME280;45056;47.602;9.886;2023-06-14T04:36:32;92464.06;;;15.22;41.87
59289;BME280;45056;47.602;9.886;2023-06-14T04:39:03;92466.59;;;15.25;41.93
59289;BME280;45056;47.602;9.886;2023-06-14T04:41:32;92464.41;;;15.29;42.13
59289;BME280;45056;47.602;9.886;2023-06-14T04:44:01;92470.91;;;15.32;42.21
59289;BME280;45056;47.602;9.886;2023-06-14T04:46:31;92467.94;;;15.36;42.15
59289;BME280;45056;47.602;9.886;2023-06-14T04:48:59;92477.47;;;15.40;42.03
59289;BME280;45056;47.602;9.886;2023-06-14T04:51:29;92472.78;;;15.47;41.86
59289;BME280;45056;47.602;9.886;2023-06-14T04:54:00;92475.34;;;15.56;41.95
59289;BME280;45056;47.602;9.886;2023-06-14T04:56:29;92476.94;;;16.33;40.84
59289;BME280;45056;47.602;9.886;2023-06-14T04:58:57;92480.34;;;18.63;37.80
59289;BME280;45056;47.602;9.886;2023-06-14T05:01:25;92476.56;;;21.33;33.63
59289;BME280;45056;47.602;9.886;2023-06-14T05:03:55;92481.13;;;23.90;30.11
59289;BME280;45056;47.602;9.886;2023-06-14T05:06:23;92482.84;;;26.12;26.94
59289;BME280;45056;47.602;9.886;2023-06-14T05:08:51;92478.66;;;27.93;24.45
59289;BME280;45056;47.602;9.886;2023-06-14T05:11:19;92484.75;;;29.44;22.64
59289;BME280;45056;47.602;9.886;2023-06-14T05:13:50;92487.59;;;30.54;21.00
59289;BME280;45056;47.602;9.886;2023-06-14T05:16:18;92487.50;;;30.62;19.73
59289;BME280;45056;47.602;9.886;2023-06-14T05:18:46;92492.47;;;29.99;19.89
59289;BME280;45056;47.602;9.886;2023-06-14T05:21:17;92484.91;;;29.46;19.93
59289;BME280;45056;47.602;9.886;2023-06-14T05:23:45;92483.97;;;29.08;19.95
59289;BME280;45056;47.602;9.886;2023-06-14T05:26:13;92481.28;;;28.50;20.33
59289;BME280;45056;47.602;9.886;2023-06-14T05:28:41;92486.31;;;27.85;20.22
59289;BME280;45056;47.602;9.886;2023-06-14T05:31:10;92488.00;;;27.40;20.39
59289;BME280;45056;47.602;9.886;2023-06-14T05:33:38;92493.66;;;27.16;19.97
59289;BME280;45056;47.602;9.886;2023-06-14T05:36:06;92492.75;;;26.44;21.01
59289;BME280;45056;47.602;9.886;2023-06-14T05:38:35;92485.34;;;25.63;21.62
59289;BME280;45056;47.602;9.886;2023-06-14T05:41:03;92492.47;;;24.77;22.31
59289;BME280;45056;47.602;9.886;2023-06-14T05:43:31;92494.69;;;23.94;23.32
59289;BME280;45056;47.602;9.886;2023-06-14T05:46:00;92494.41;;;23.22;24.07
59289;BME280;45056;47.602;9.886;2023-06-14T05:48:28;92488.97;;;22.62;24.34
59289;BME280;45056;47.602;9.886;2023-06-14T05:50:56;92492.50;;;22.17;25.08
59289;BME280;45056;47.602;9.886;2023-06-14T05:53:24;92488.50;;;21.80;25.98
59289;BME280;45056;47.602;9.886;2023-06-14T05:55:54;92494.22;;;21.30;26.28
59289;BME280;45056;47.602;9.886;2023-06-14T05:58:22;92486.31;;;20.96;26.50
59289;BME280;45056;47.602;9.886;2023-06-14T06:00:50;92489.88;;;20.66;27.59
59289;BME280;45056;47.602;9.886;2023-06-14T06:03:20;92494.88;;;20.42;27.94
59289;BME280;45056;47.602;9.886;2023-06-14T06:05:49;92494.56;;;20.21;28.11
59289;BME280;45056;47.602;9.886;2023-06-14T06:08:17;92496.72;;;20.03;27.82
59289;BME280;45056;47.602;9.886;2023-06-14T06:10:45;92493.91;;;20.09;28.47
59289;BME280;45056;47.602;9.886;2023-06-14T06:13:15;92494.38;;;20.69;27.06
59289;BME280;45056;47.602;9.886;2023-06-14T06:15:43;92495.34;;;20.96;27.41
59289;BME280;45056;47.602;9.886;2023-06-14T06:18:11;92500.25;;;20.84;27.11
59289;BME280;45056;47.602;9.886;2023-06-14T06:20:39;92503.25;;;20.86;27.31
59289;BME280;45056;47.602;9.886;2023-06-14T06:23:07;92510.88;;;20.80;27.00
59289;BME280;45056;47.602;9.886;2023-06-14T06:25:36;92507.22;;;20.66;27.77
59289;BME280;45056;47.602;9.886;2023-06-14T06:28:04;92509.88;;;20.53;27.74
59289;BME280;45056;47.602;9.886;2023-06-14T06:30:34;92508.19;;;20.44;28.06
59289;BME280;45056;47.602;9.886;2023-06-14T06:33:02;92510.75;;;20.36;27.81
59289;BME280;45056;47.602;9.886;2023-06-14T06:35:30;92515.59;;;20.30;28.42
59289;BME280;45056;47.602;9.886;2023-06-14T06:37:59;92518.34;;;20.30;28.09
59289;BME280;45056;47.602;9.886;2023-06-14T06:40:28;92521.09;;;20.30;28.58
59289;BME280;45056;47.602;9.886;2023-06-14T06:42:56;92519.09;;;20.30;28.55
59289;BME280;45056;47.602;9.886;2023-06-14T06:45:24;92530.44;;;20.27;28.45
59289;BME280;45056;47.602;9.886;2023-06-14T06:47:53;92529.19;;;20.22;29.18
59289;BME280;45056;47.602;9.886;2023-06-14T06:50:22;92526.75;;;20.18;29.52
59289;BME280;45056;47.602;9.886;2023-06-14T06:52:51;92525.50;;;20.14;28.91
59289;BME280;45056;47.602;9.886;2023-06-14T06:55:20;92532.53;;;20.15;28.80
59289;BME280;45056;47.602;9.886;2023-06-14T06:57:48;92539.22;;;20.25;28.88
59289;BME280;45056;47.602;9.886;2023-06-14T07:00:19;92539.94;;;20.31;29.30
59289;BME280;45056;47.602;9.886;2023-06-14T07:02:47;92536.38;;;20.37;28.67
59289;BME280;45056;47.602;9.886;2023-06-14T07:05:17;92537.69;;;20.30;28.17
59289;BME280;45056;47.602;9.886;2023-06-14T07:07:45;92534.72;;;20.22;28.45
59289;BME280;45056;47.602;9.886;2023-06-14T07:10:13;92536.75;;;20.22;28.84
59289;BME280;45056;47.602;9.886;2023-06-14T07:12:41;92539.75;;;20.24;29.20
59289;BME280;45056;47.602;9.886;2023-06-14T07:15:10;92536.44;;;20.25;29.26
59289;BME280;45056;47.602;9.886;2023-06-14T07:17:38;92534.19;;;20.29;29.78
59289;BME280;45056;47.602;9.886;2023-06-14T07:20:08;92546.97;;;20.32;29.98
59289;BME280;45056;47.602;9.886;2023-06-14T07:22:40;92544.66;;;20.37;30.33
59289;BME280;45056;47.602;9.886;2023-06-14T07:25:09;92532.59;;;20.40;30.71
59289;BME280;45056;47.602;9.886;2023-06-14T07:27:40;92540.88;;;20.40;31.21
59289;BME280;45056;47.602;9.886;2023-06-14T07:30:09;92560.44;;;20.42;30.64
59289;BME280;45056;47.602;9.886;2023-06-14T07:32:38;92549.63;;;20.44;30.55
59289;BME280;45056;47.602;9.886;2023-06-14T07:35:07;92548.34;;;20.45;30.20
59289;BME280;45056;47.602;9.886;2023-06-14T07:37:35;92549.13;;;20.45;30.20
59289;BME280;45056;47.602;9.886;2023-06-14T07:40:06;92546.59;;;20.47;30.64
59289;BME280;45056;47.602;9.886;2023-06-14T07:42:36;92551.09;;;20.51;31.15
59289;BME280;45056;47.602;9.886;2023-06-14T07:45:06;92551.31;;;20.53;31.47
59289;BME280;45056;47.602;9.886;2023-06-14T07:47:34;92549.75;;;20.57;31.43
59289;BME280;45056;47.602;9.886;2023-06-14T07:50:03;92558.28;;;20.59;31.75
59289;BME280;45056;47.602;9.886;2023-06-14T07:52:31;92553.00;;;20.61;32.08
59289;BME280;45056;47.602;9.886;2023-06-14T07:55:00;92547.97;;;20.60;32.25
59289;BME280;45056;47.602;9.886;2023-06-14T07:57:29;92555.75;;;20.61;32.21
59289;BME280;45056;47.602;9.886;2023-06-14T07:59:57;92549.19;;;20.65;31.95
59289;BME280;45056;47.602;9.886;2023-06-14T08:02:26;92550.69;;;20.66;32.02
59289;BME280;45056;47.602;9.886;2023-06-14T08:04:54;92553.91;;;20.70;32.22
59289;BME280;45056;47.602;9.886;2023-06-14T08:07:22;92553.88;;;20.75;32.41
59289;BME280;45056;47.602;9.886;2023-06-14T08:09:50;92557.84;;;20.80;32.18
59289;BME280;45056;47.602;9.886;2023-06-14T08:12:18;92548.75;;;20.85;31.51
59289;BME280;45056;47.602;9.886;2023-06-14T08:14:47;92556.00;;;20.88;28.29
59289;BME280;45056;47.602;9.886;2023-06-14T08:17:16;92547.66;;;20.94;28.33
59289;BME280;45056;47.602;9.886;2023-06-14T08:19:44;92553.16;;;21.00;28.15
59289;BME280;45056;47.602;9.886;2023-06-14T08:22:12;92562.34;;;21.08;27.62
59289;BME280;45056;47.602;9.886;2023-06-14T08:24:40;92558.25;;;21.15;27.30
59289;BME280;45056;47.602;9.886;2023-06-14T08:27:08;92555.19;;;21.18;26.92
59289;BME280;45056;47.602;9.886;2023-06-14T08:29:37;92561.19;;;21.23;27.05
59289;BME280;45056;47.602;9.886;2023-06-14T08:32:08;92561.88;;;21.29;27.07
59289;BME280;45056;47.602;9.886;2023-06-14T08:34:36;92558.97;;;21.40;27.30
59289;BME280;45056;47.602;9.886;2023-06-14T08:37:05;92561.91;;;21.48;27.07
59289;BME280;45056;47.602;9.886;2023-06-14T08:39:33;92564.06;;;21.55;27.06
59289;BME280;45056;47.602;9.886;2023-06-14T08:42:02;92566.78;;;21.61;26.95
59289;BME280;45056;47.602;9.886;2023-06-14T08:44:32;92568.28;;;21.62;27.03
59289;BME280;45056;47.602;9.886;2023-06-14T08:47:01;92564.72;;;21.67;26.94
59289;BME280;45056;47.602;9.886;2023-06-14T08:49:32;92569.63;;;21.74;27.09
59289;BME280;45056;47.602;9.886;2023-06-14T08:52:02;92570.41;;;21.75;26.49
59289;BME280;45056;47.602;9.886;2023-06-14T08:54:32;92571.34;;;21.77;26.73
59289;BME280;45056;47.602;9.886;2023-06-14T08:57:03;92562.75;;;21.81;26.54
59289;BME280;45056;47.602;9.886;2023-06-14T08:59:33;92575.78;;;21.86;26.76
59289;BME280;45056;47.602;9.886;2023-06-14T09:02:06;92575.25;;;21.88;25.73
59289;BME280;45056;47.602;9.886;2023-06-14T09:04:35;92587.06;;;21.88;26.21
59289;BME280;45056;47.602;9.886;2023-06-14T09:07:05;92580.25;;;21.89;26.26
59289;BME280;45056;47.602;9.886;2023-06-14T09:09:38;92583.34;;;21.86;25.80
59289;BME280;45056;47.602;9.886;2023-06-14T09:12:10;92580.56;;;21.86;25.70
59289;BME280;45056;47.602;9.886;2023-06-14T09:14:39;92578.03;;;21.88;25.88
59289;BME280;45056;47.602;9.886;2023-06-14T09:17:13;92574.22;;;21.91;26.07
59289;BME280;45056;47.602;9.886;2023-06-14T09:19:42;92586.03;;;21.91;26.28
59289;BME280;45056;47.602;9.886;2023-06-14T09:22:12;92579.44;;;21.95;26.49
59289;BME280;45056;47.602;9.886;2023-06-14T09:24:41;92576.66;;;21.95;25.87
59289;BME280;45056;47.602;9.886;2023-06-14T09:27:15;92575.16;;;21.94;25.90
59289;BME280;45056;47.602;9.886;2023-06-14T09:29:43;92590.00;;;21.96;26.07
59289;BME280;45056;47.602;9.886;2023-06-14T09:32:12;92588.72;;;21.97;25.76
59289;BME280;45056;47.602;9.886;2023-06-14T09:34:42;92581.69;;;21.96;25.47
59289;BME280;45056;47.602;9.886;2023-06-14T09:37:10;92583.19;;;21.97;25.62
59289;BME280;45056;47.602;9.886;2023-06-14T09:39:49;92579.06;;;22.04;25.47
59289;BME280;45056;47.602;9.886;2023-06-14T09:42:18;92581.75;;;22.10;25.79
59289;BME280;45056;47.602;9.886;2023-06-14T09:44:48;92589.22;;;22.15;25.58
59289;BME280;45056;47.602;9.886;2023-06-14T09:47:18;92594.09;;;22.09;24.95
59289;BME280;45056;47.602;9.886;2023-06-14T09:49:49;92583.84;;;22.03;24.73
59289;BME280;45056;47.602;9.886;2023-06-14T09:52:20;92599.72;;;22.03;25.92
59289;BME280;45056;47.602;9.886;2023-06-14T09:54:49;92590.16;;;22.04;25.83
59289;BME280;45056;47.602;9.886;2023-06-14T09:57:21;92592.31;;;22.11;25.82
59289;BME280;45056;47.602;9.886;2023-06-14T09:59:53;92589.22;;;22.15;25.84
59289;BME280;45056;47.602;9.886;2023-06-14T10:02:29;92585.84;;;22.22;25.87
59289;BME280;45056;47.602;9.886;2023-06-14T10:05:06;92578.94;;;22.29;25.74
59289;BME280;45056;47.602;9.886;2023-06-14T10:07:40;92585.69;;;22.33;25.21
59289;BME280;45056;47.602;9.886;2023-06-14T10:10:12;92580.78;;;22.40;25.03
59289;BME280;45056;47.602;9.886;2023-06-14T10:12:41;92588.25;;;22.45;25.28
59289;BME280;45056;47.602;9.886;2023-06-14T10:15:11;92583.94;;;22.50;24.81
59289;BME280;45056;47.602;9.886;2023-06-14T10:17:48;92585.16;;;22.54;24.25
59289;BME280;45056;47.602;9.886;2023-06-14T10:20:32;92581.81;;;22.56;24.59
59289;BME280;45056;47.602;9.886;2023-06-14T10:23:12;92578.31;;;22.55;24.37
59289;BME280;45056;47.602;9.886;2023-06-14T10:25:45;92581.09;;;22.55;24.09
59289;BME280;45056;47.602;9.886;2023-06-14T10:28:19;92585.78;;;22.60;24.51
59289;BME280;45056;47.602;9.886;2023-06-14T10:31:07;92591.41;;;22.55;23.87
59289;BME280;45056;47.602;9.886;2023-06-14T10:33:40;92584.38;;;22.54;24.26
59289;BME280;45056;47.602;9.886;2023-06-14T10:36:36;92575.56;;;22.55;24.71
59289;BME280;45056;47.602;9.886;2023-06-14T10:39:06;92571.94;;;22.60;25.19
59289;BME280;45056;47.602;9.886;2023-06-14T10:41:38;92575.34;;;22.67;24.93
59289;BME280;45056;47.602;9.886;2023-06-14T10:44:32;92583.25;;;22.76;25.42
59289;BME280;45056;47.602;9.886;2023-06-14T10:47:01;92579.03;;;22.88;25.34
59289;BME280;45056;47.602;9.886;2023-06-14T10:49:39;92587.03;;;23.05;25.32
59289;BME280;45056;47.602;9.886;2023-06-14T10:52:12;92582.91;;;23.26;25.24
59289;BME280;45056;47.602;9.886;2023-06-14T10:55:08;92577.16;;;23.51;25.04
59289;BME280;45056;47.602;9.886;2023-06-14T10:57:39;92582.78;;;23.72;25.06
59289;BME280;45056;47.602;9.886;2023-06-14T11:00:10;92586.81;;;23.84;23.94
59289;BME280;45056;47.602;9.886;2023-06-14T11:06:14;92592.94;;;24.17;23.53
59289;BME280;45056;47.602;9.886;2023-06-14T11:09:23;92583.56;;;24.42;24.52
59289;BME280;45056;47.602;9.886;2023-06-14T11:12:10;92583.16;;;24.59;23.95
59289;BME280;45056;47.602;9.886;2023-06-14T11:14:39;92573.81;;;24.70;24.03
59289;BME280;45056;47.602;9.886;2023-06-14T11:17:07;92579.09;;;24.81;24.45
59289;BME280;45056;47.602;9.886;2023-06-14T11:19:36;92581.19;;;24.88;23.76
59289;BME280;45056;47.602;9.886;2023-06-14T11:22:04;92583.50;;;24.98;24.79
59289;BME280;45056;47.602;9.886;2023-06-14T11:24:34;92580.03;;;25.05;24.22
59289;BME280;45056;47.602;9.886;2023-06-14T11:27:03;92580.97;;;25.07;24.21
59289;BME280;45056;47.602;9.886;2023-06-14T11:29:33;92588.97;;;25.11;24.74
59289;BME280;45056;47.602;9.886;2023-06-14T11:32:01;92585.66;;;25.13;25.10
59289;BME280;45056;47.602;9.886;2023-06-14T11:34:29;92580.81;;;25.13;25.01
59289;BME280;45056;47.602;9.886;2023-06-14T11:36:58;92575.25;;;25.13;24.50
59289;BME280;45056;47.602;9.886;2023-06-14T11:39:27;92575.25;;;25.13;25.00
59289;BME280;45056;47.602;9.886;2023-06-14T11:41:56;92572.66;;;25.15;24.96
59289;BME280;45056;47.602;9.886;2023-06-14T11:44:27;92581.22;;;25.17;25.10
59289;BME280;45056;47.602;9.886;2023-06-14T11:46:56;92568.47;;;25.22;25.27
59289;BME280;45056;47.602;9.886;2023-06-14T11:49:24;92570.53;;;25.29;25.32
59289;BME280;45056;47.602;9.886;2023-06-14T11:51:54;92573.16;;;25.35;24.79
59289;BME280;45056;47.602;9.886;2023-06-14T11:54:22;92577.84;;;25.40;24.70
59289;BME280;45056;47.602;9.886;2023-06-14T11:56:50;92576.19;;;25.45;24.73
59289;BME280;45056;47.602;9.886;2023-06-14T11:59:20;92563.22;;;25.47;24.98
59289;BME280;45056;47.602;9.886;2023-06-14T12:01:48;92570.84;;;25.47;25.04
59289;BME280;45056;47.602;9.886;2023-06-14T12:04:23;92582.19;;;25.49;25.57
59289;BME280;45056;47.602;9.886;2023-06-14T12:06:52;92576.81;;;25.51;24.90
59289;BME280;45056;47.602;9.886;2023-06-14T12:09:22;92576.06;;;25.50;24.93
59289;BME280;45056;47.602;9.886;2023-06-14T12:11:59;92577.16;;;25.47;25.25
59289;BME280;45056;47.602;9.886;2023-06-14T12:14:30;92568.06;;;25.47;24.81
59289;BME280;45056;47.602;9.886;2023-06-14T12:17:04;92554.66;;;25.45;24.95
59289;BME280;45056;47.602;9.886;2023-06-14T12:19:41;92565.59;;;25.43;25.16
59289;BME280;45056;47.602;9.886;2023-06-14T12:22:10;92568.06;;;25.47;25.60
59289;BME280;45056;47.602;9.886;2023-06-14T12:24:42;92569.56;;;25.48;25.10
59289;BME280;45056;47.602;9.886;2023-06-14T12:27:11;92574.38;;;25.47;24.73
59289;BME280;45056;47.602;9.886;2023-06-14T12:29:43;92576.19;;;25.45;24.53
59289;BME280;45056;47.602;9.886;2023-06-14T12:32:12;92577.16;;;25.47;25.23
59289;BME280;45056;47.602;9.886;2023-06-14T12:34:40;92570.50;;;25.50;24.71
59289;BME280;45056;47.602;9.886;2023-06-14T12:37:08;92571.59;;;25.47;24.63
59289;BME280;45056;47.602;9.886;2023-06-14T12:39:37;92569.16;;;25.44;24.32
59289;BME280;45056;47.602;9.886;2023-06-14T12:42:06;92564.66;;;25.41;24.72
59289;BME280;45056;47.602;9.886;2023-06-14T12:44:35;92574.16;;;25.45;25.50
59289;BME280;45056;47.602;9.886;2023-06-14T12:47:08;92582.19;;;25.49;25.07
59289;BME280;45056;47.602;9.886;2023-06-14T12:49:36;92582.78;;;25.55;24.63
59289;BME280;45056;47.602;9.886;2023-06-14T12:52:05;92568.66;;;25.53;24.00
59289;BME280;45056;47.602;9.886;2023-06-14T12:54:34;92575.66;;;25.46;24.18
59289;BME280;45056;47.602;9.886;2023-06-14T12:57:03;92574.16;;;25.45;24.68
59289;BME280;45056;47.602;9.886;2023-06-14T12:59:31;92585.28;;;25.45;24.16
59289;BME280;45056;47.602;9.886;2023-06-14T13:02:15;92568.81;;;25.47;24.68
59289;BME280;45056;47.602;9.886;2023-06-14T13:04:44;92574.41;;;25.55;24.90
59289;BME280;45056;47.602;9.886;2023-06-14T13:07:12;92577.75;;;25.54;23.96
59289;BME280;45056;47.602;9.886;2023-06-14T13:09:41;92575.88;;;25.48;24.14
59289;BME280;45056;47.602;9.886;2023-06-14T13:12:10;92586.66;;;25.52;24.39
59289;BME280;45056;47.602;9.886;2023-06-14T13:14:39;92576.63;;;25.57;24.15
59289;BME280;45056;47.602;9.886;2023-06-14T13:17:08;92568.09;;;25.55;23.79
59289;BME280;45056;47.602;9.886;2023-06-14T13:19:38;92589.84;;;25.56;24.09